createdAt,value
2023-03-10T00:00:01.866Z,5.18
2023-03-10T00:02:33.270Z,5.57
2023-03-10T00:04:59.836Z,5.25
2023-03-10T00:07:26.674Z,5.72
2023-03-10T00:09:53.265Z,5.38
2023-03-10T00:12:19.899Z,4.97
2023-03-10T00:14:46.391Z,6.22
2023-03-10T00:17:12.935Z,6.20
2023-03-10T00:19:39.497Z,5.43
2023-03-10T00:22:06.499Z,5.05
2023-03-10T00:24:33.151Z,4.75
2023-03-10T00:26:59.639Z,4.82
2023-03-10T00:29:26.238Z,4.28
2023-03-10T00:31:52.739Z,4.50
2023-03-10T00:34:19.268Z,4.50
2023-03-10T00:36:46.037Z,4.95
2023-03-10T00:39:12.562Z,6.05
2023-03-10T00:41:39.324Z,5.90
2023-03-10T00:44:09.459Z,4.72
2023-03-10T00:46:38.607Z,4.25
2023-03-10T00:49:11.959Z,4.35
2023-03-10T00:51:38.495Z,5.05
2023-03-10T00:54:05.031Z,4.78
2023-03-10T00:56:31.574Z,4.97
2023-03-10T00:58:59.944Z,4.95
2023-03-10T01:01:32.950Z,4.57
2023-03-10T01:04:02.732Z,5.05
2023-03-10T01:06:29.260Z,6.38
2023-03-10T01:08:55.823Z,3.33
2023-03-10T01:11:25.175Z,4.97
2023-03-10T01:13:52.983Z,5.20
2023-03-10T01:16:19.860Z,3.83
2023-03-10T01:18:46.462Z,3.95
2023-03-10T01:21:28.492Z,4.32
2023-03-10T01:23:55.455Z,4.25
2023-03-10T01:26:22.061Z,4.32
2023-03-10T01:28:49.425Z,4.15
2023-03-10T01:31:17.040Z,3.08
2023-03-10T01:33:43.964Z,3.65
2023-03-10T01:36:12.824Z,4.85
2023-03-10T01:38:39.881Z,3.72
2023-03-10T01:41:06.650Z,4.20
2023-03-10T01:43:35.803Z,3.15
2023-03-10T01:46:02.286Z,2.85
2023-03-10T01:48:32.783Z,2.88
2023-03-10T01:50:59.887Z,4.20
2023-03-10T01:53:28.687Z,3.92
2023-03-10T01:55:59.304Z,3.47
2023-03-10T01:58:32.596Z,4.07
2023-03-10T02:00:59.129Z,3.38
2023-03-10T02:03:37.315Z,2.55
2023-03-10T02:06:10.995Z,3.60
2023-03-10T02:08:44.294Z,3.13
2023-03-10T02:11:12.052Z,4.38
2023-03-10T02:13:38.563Z,2.97
2023-03-10T02:16:05.677Z,2.45
2023-03-10T02:18:32.393Z,3.00
2023-03-10T02:21:13.853Z,2.97
2023-03-10T02:24:01.745Z,3.10
2023-03-10T02:26:34.274Z,3.53
2023-03-10T02:29:03.511Z,2.25
2023-03-10T02:31:31.526Z,2.45
2023-03-10T02:33:58.505Z,2.35
2023-03-10T02:36:25.366Z,2.70
2023-03-10T02:38:52.029Z,3.10
2023-03-10T02:41:26.254Z,3.10
2023-03-10T02:43:54.958Z,2.40
2023-03-10T02:46:22.494Z,3.63
2023-03-10T02:48:49.032Z,2.65
2023-03-10T02:51:26.161Z,2.72
2023-03-10T02:53:52.680Z,3.08
2023-03-10T02:56:19.253Z,3.17
2023-03-10T02:58:45.813Z,2.30
2023-03-10T03:01:12.742Z,2.42
2023-03-10T03:03:39.852Z,2.80
2023-03-10T03:06:06.860Z,2.63
2023-03-10T03:08:33.423Z,2.75
2023-03-10T03:11:01.113Z,2.53
2023-03-10T03:13:27.939Z,2.00
2023-03-10T03:15:54.439Z,2.30
2023-03-10T03:18:21.106Z,2.55
2023-03-10T03:20:48.074Z,2.50
2023-03-10T03:23:14.596Z,1.98
2023-03-10T03:25:41.966Z,2.00
2023-03-10T03:28:10.762Z,1.65
2023-03-10T03:30:37.960Z,2.75
2023-03-10T03:33:05.921Z,2.00
2023-03-10T03:35:34.882Z,1.80
2023-03-10T03:38:02.048Z,2.95
2023-03-10T03:40:33.570Z,2.28
2023-03-10T03:43:00.672Z,2.33
2023-03-10T03:45:29.546Z,2.50
2023-03-10T03:47:56.222Z,2.47
2023-03-10T03:50:23.625Z,1.98
2023-03-10T03:52:50.643Z,2.78
2023-03-10T03:55:18.282Z,2.05
2023-03-10T03:57:45.890Z,1.65
2023-03-10T04:00:20.577Z,1.90
2023-03-10T04:02:47.236Z,1.85
2023-03-10T04:05:14.000Z,2.70
2023-03-10T04:07:41.887Z,2.65
2023-03-10T04:10:12.172Z,1.73
2023-03-10T04:12:38.708Z,3.35
2023-03-10T04:15:07.097Z,1.58
2023-03-10T04:17:33.825Z,2.13
2023-03-10T04:20:06.917Z,1.55
2023-03-10T04:22:34.474Z,1.67
2023-03-10T04:25:00.985Z,1.92
2023-03-10T04:27:27.714Z,1.92
2023-03-10T04:29:54.248Z,1.48
2023-03-10T04:32:20.755Z,1.70
2023-03-10T04:34:47.324Z,1.92
2023-03-10T04:37:13.853Z,1.83
2023-03-10T04:39:40.343Z,2.53
2023-03-10T04:42:07.246Z,2.28
2023-03-10T04:44:34.031Z,1.65
2023-03-10T04:47:00.627Z,1.92
2023-03-10T04:49:27.662Z,1.58
2023-03-10T04:51:54.709Z,1.42
2023-03-10T04:54:21.202Z,1.70
2023-03-10T04:56:47.689Z,2.45
2023-03-10T04:59:14.165Z,1.70
2023-03-10T05:01:40.909Z,1.88
2023-03-10T05:04:07.587Z,1.17
2023-03-10T05:06:34.205Z,1.50
2023-03-10T05:09:03.443Z,1.50
2023-03-10T05:11:30.231Z,1.35
2023-03-10T05:13:56.710Z,1.35
2023-03-10T05:16:23.547Z,2.00
2023-03-10T05:18:50.204Z,1.70
2023-03-10T05:21:16.916Z,1.50
2023-03-10T05:23:43.568Z,1.30
2023-03-10T05:26:11.784Z,1.58
2023-03-10T05:28:38.779Z,1.23
2023-03-10T05:31:11.612Z,1.35
2023-03-10T05:33:38.105Z,1.60
2023-03-10T05:36:10.042Z,1.45
2023-03-10T05:38:37.335Z,2.38
2023-03-10T05:41:08.791Z,1.80
2023-03-10T05:43:35.378Z,2.25
2023-03-10T05:46:01.991Z,1.95
2023-03-10T05:48:28.957Z,2.30
2023-03-10T05:51:07.247Z,2.40
2023-03-10T05:53:35.216Z,2.97
2023-03-10T05:56:06.999Z,2.22
2023-03-10T05:58:33.623Z,2.85
2023-03-10T06:01:00.140Z,2.38
2023-03-10T06:03:28.699Z,2.75
2023-03-10T06:05:59.156Z,2.33
2023-03-10T06:08:28.054Z,1.58
2023-03-10T06:10:54.930Z,1.92
2023-03-10T06:13:21.657Z,3.25
2023-03-10T06:15:53.098Z,2.42
2023-03-10T06:18:20.107Z,3.00
2023-03-10T06:20:48.044Z,2.60
2023-03-10T06:23:16.057Z,1.70
2023-03-10T06:25:42.727Z,2.35
2023-03-10T06:28:09.873Z,2.63
2023-03-10T06:30:36.675Z,5.22
2023-03-10T06:33:03.535Z,2.83
2023-03-10T06:35:31.913Z,3.60
2023-03-10T06:37:58.475Z,3.17
2023-03-10T06:40:25.030Z,2.67
2023-03-10T06:42:51.570Z,3.40
2023-03-10T06:45:18.266Z,2.58
2023-03-10T06:47:45.258Z,2.25
2023-03-10T06:50:13.140Z,2.40
2023-03-10T06:52:39.777Z,2.83
2023-03-10T06:55:06.939Z,3.50
2023-03-10T06:57:33.966Z,2.80
2023-03-10T07:00:00.531Z,2.00
2023-03-10T07:02:27.038Z,3.13
2023-03-10T07:04:53.627Z,2.75
2023-03-10T07:07:20.240Z,2.50
2023-03-10T07:09:47.001Z,2.28
2023-03-10T07:12:16.338Z,2.55
2023-03-10T07:14:42.877Z,2.00
2023-03-10T07:17:14.805Z,2.42
2023-03-10T07:19:41.277Z,2.13
2023-03-10T07:22:09.705Z,1.65
2023-03-10T07:24:37.773Z,2.30
2023-03-10T07:27:04.680Z,1.98
2023-03-10T07:29:34.411Z,2.80
2023-03-10T07:32:00.982Z,4.47
2023-03-10T07:34:27.474Z,1.67
2023-03-10T07:36:54.064Z,3.33
2023-03-10T07:39:21.086Z,2.08
2023-03-10T07:41:47.602Z,2.28
2023-03-10T07:44:15.301Z,2.35
2023-03-10T07:46:41.985Z,1.80
2023-03-10T07:49:08.560Z,2.60
2023-03-10T07:51:35.574Z,2.22
2023-03-10T07:54:02.126Z,1.83
2023-03-10T07:56:28.744Z,2.05
2023-03-10T07:58:55.270Z,2.53
2023-03-10T08:01:22.308Z,2.13
2023-03-10T08:03:48.944Z,2.20
2023-03-10T08:06:21.917Z,2.50
2023-03-10T08:08:48.474Z,2.92
2023-03-10T08:11:15.414Z,1.88
2023-03-10T08:13:42.220Z,2.85
2023-03-10T08:16:08.829Z,1.70
2023-03-10T08:18:35.435Z,1.92
2023-03-10T08:21:05.386Z,1.70
2023-03-10T08:23:32.468Z,1.88
2023-03-10T08:26:12.412Z,2.08
2023-03-10T08:28:39.186Z,1.70
2023-03-10T08:31:17.064Z,1.67
2023-03-10T08:33:44.822Z,2.00
2023-03-10T08:36:13.502Z,2.05
2023-03-10T08:38:41.160Z,1.50
2023-03-10T08:41:23.489Z,1.55
2023-03-10T08:43:51.762Z,1.85
2023-03-10T08:46:20.537Z,1.88
2023-03-10T08:48:47.474Z,1.58
2023-03-10T08:51:16.112Z,1.60
2023-03-10T08:53:44.679Z,1.58
2023-03-10T08:56:11.255Z,2.00
2023-03-10T08:58:37.754Z,1.70
2023-03-10T09:01:05.032Z,2.45
2023-03-10T09:03:32.077Z,1.52
2023-03-10T09:05:58.764Z,1.52
2023-03-10T09:08:27.529Z,2.00
2023-03-10T09:10:54.949Z,1.58
2023-03-10T09:13:22.125Z,1.13
2023-03-10T09:15:50.495Z,1.35
2023-03-10T09:18:17.342Z,1.85
2023-03-10T09:20:45.056Z,1.38
2023-03-10T09:23:13.904Z,1.60
2023-03-10T09:25:40.485Z,1.50
2023-03-10T09:28:11.561Z,1.35
2023-03-10T09:30:40.483Z,1.83
2023-03-10T09:33:13.440Z,7.32
2023-03-10T09:35:41.866Z,1.38
2023-03-10T09:38:14.835Z,1.85
2023-03-10T09:41:06.216Z,0.60
2023-03-10T09:43:39.179Z,1.20
2023-03-10T09:46:19.663Z,1.33
2023-03-10T09:49:04.656Z,0.98
2023-03-10T09:51:31.614Z,1.63
2023-03-10T09:54:24.245Z,1.70
2023-03-10T09:56:51.271Z,1.40
2023-03-10T09:59:40.476Z,0.95
2023-03-10T10:02:24.051Z,1.00
2023-03-10T10:04:56.243Z,0.68
2023-03-10T10:07:27.332Z,0.80
2023-03-10T10:10:03.043Z,0.88
2023-03-10T10:12:29.551Z,0.95
2023-03-10T10:15:00.038Z,3.72
2023-03-10T10:17:55.031Z,1.02
2023-03-10T10:20:35.543Z,0.75
2023-03-10T10:23:02.151Z,0.70
2023-03-10T10:25:32.391Z,0.88
2023-03-10T10:28:01.112Z,1.45
2023-03-10T10:30:39.930Z,1.00
2023-03-10T10:33:11.903Z,1.25
2023-03-10T10:36:00.636Z,1.27
2023-03-10T10:38:30.177Z,1.45
2023-03-10T10:41:07.731Z,1.02
2023-03-10T10:43:48.382Z,0.70
2023-03-10T10:46:23.055Z,0.98
2023-03-10T10:48:51.467Z,1.08
2023-03-10T10:51:29.615Z,0.82
2023-03-10T10:54:00.991Z,1.63
2023-03-10T10:56:28.921Z,0.80
2023-03-10T10:59:19.675Z,1.00
2023-03-10T11:01:53.857Z,1.00
2023-03-10T11:04:22.030Z,1.48
2023-03-10T11:06:50.125Z,1.20
2023-03-10T11:09:19.948Z,1.20
2023-03-10T11:11:58.667Z,0.95
2023-03-10T11:14:53.395Z,0.70
2023-03-10T11:17:30.174Z,0.85
2023-03-10T11:20:08.784Z,1.05
2023-03-10T11:22:53.597Z,0.70
2023-03-10T11:25:36.948Z,1.13
2023-03-10T11:28:18.909Z,0.85
2023-03-10T11:31:11.080Z,0.90
2023-03-10T11:33:48.885Z,1.50
2023-03-10T11:36:55.937Z,1.23
2023-03-10T11:39:39.389Z,0.77
2023-03-10T11:42:31.932Z,1.67
2023-03-10T11:45:19.238Z,0.90
2023-03-10T11:47:54.949Z,1.70
2023-03-10T11:50:33.131Z,0.80
2023-03-10T11:53:17.574Z,1.00
2023-03-10T11:55:45.349Z,0.75
2023-03-10T11:58:22.136Z,1.23
2023-03-10T12:00:52.706Z,1.13
2023-03-10T12:03:40.100Z,1.30
2023-03-10T12:06:14.526Z,0.88
2023-03-10T12:08:42.117Z,0.80
2023-03-10T12:11:16.843Z,1.70
2023-03-10T12:13:47.815Z,0.90
2023-03-10T12:16:20.835Z,0.80
2023-03-10T12:18:47.763Z,0.90
2023-03-10T12:21:24.783Z,1.38
2023-03-10T12:23:53.694Z,0.88
2023-03-10T12:26:38.457Z,1.90
2023-03-10T12:29:32.563Z,0.77
2023-03-10T12:31:59.386Z,1.23
2023-03-10T12:34:29.147Z,1.77
2023-03-10T12:37:08.439Z,1.10
2023-03-10T12:39:42.781Z,0.93
2023-03-10T12:42:27.371Z,1.65
2023-03-10T12:45:08.826Z,0.82
2023-03-10T12:47:57.798Z,1.20
2023-03-10T12:50:49.315Z,2.65
2023-03-10T12:53:30.984Z,1.33
2023-03-10T12:56:38.412Z,3.75
2023-03-10T12:59:24.170Z,3.33
2023-03-10T13:01:59.694Z,4.68
2023-03-10T13:04:27.636Z,6.80
2023-03-10T13:07:03.801Z,7.75
2023-03-10T13:09:42.259Z,11.80
2023-03-10T13:12:17.691Z,10.68
2023-03-10T13:14:44.433Z,13.48
2023-03-10T13:17:24.637Z,13.73
2023-03-10T13:20:08.548Z,14.63
2023-03-10T13:22:35.855Z,16.52
2023-03-10T13:25:14.441Z,16.98
2023-03-10T13:27:40.963Z,18.17
2023-03-10T13:30:10.535Z,21.15
2023-03-10T13:32:37.141Z,21.95
2023-03-10T13:35:22.269Z,21.65
2023-03-10T13:38:03.862Z,22.42
2023-03-10T13:40:30.421Z,29.02
2023-03-10T13:42:56.961Z,28.38
2023-03-10T13:45:28.295Z,30.83
2023-03-10T13:47:56.033Z,26.58
2023-03-10T13:50:23.949Z,28.70
2023-03-10T13:52:57.466Z,25.27
2023-03-10T13:55:24.497Z,25.73
2023-03-10T13:57:51.716Z,27.02
2023-03-10T14:00:21.310Z,25.95
2023-03-10T14:02:50.268Z,29.40
2023-03-10T14:05:47.462Z,28.33
2023-03-10T14:08:40.223Z,33.25
2023-03-10T14:11:41.125Z,27.65
2023-03-10T14:14:10.256Z,29.98
2023-03-10T14:16:51.338Z,26.75
2023-03-10T14:19:55.014Z,28.30
2023-03-10T14:22:24.826Z,29.85
2023-03-10T14:24:51.418Z,29.02
2023-03-10T14:27:17.984Z,27.85
2023-03-10T14:29:52.100Z,24.02
2023-03-10T14:32:19.158Z,31.52
2023-03-10T14:34:47.339Z,25.35
2023-03-10T14:37:14.234Z,26.25
2023-03-10T14:39:41.177Z,26.85
2023-03-10T14:42:20.702Z,27.92
2023-03-10T14:44:47.974Z,33.90
2023-03-10T14:47:15.160Z,31.58
2023-03-10T14:49:41.905Z,35.83
2023-03-10T14:52:17.942Z,33.50
2023-03-10T14:54:44.640Z,33.97
2023-03-10T14:57:13.573Z,35.03
2023-03-10T14:59:40.634Z,35.95
2023-03-10T15:02:25.034Z,33.80
2023-03-10T15:04:51.676Z,34.15
2023-03-10T15:07:18.251Z,34.38
2023-03-10T15:09:45.181Z,34.97
2023-03-10T15:12:15.138Z,36.08
2023-03-10T15:14:46.177Z,36.45
2023-03-10T15:17:12.802Z,36.05
2023-03-10T15:19:39.329Z,34.95
2023-03-10T15:22:05.839Z,34.53
2023-03-10T15:24:32.369Z,32.28
2023-03-10T15:26:58.905Z,37.17
2023-03-10T15:29:25.574Z,30.45
2023-03-10T15:31:52.140Z,35.30
2023-03-10T15:34:20.313Z,34.35
2023-03-10T15:36:47.651Z,32.75
2023-03-10T15:39:22.043Z,32.47
2023-03-10T15:41:55.764Z,31.50
2023-03-10T15:44:22.290Z,30.35
2023-03-10T15:46:52.671Z,30.00
2023-03-10T15:49:19.266Z,49.58
2023-03-10T15:51:45.895Z,45.80
2023-03-10T15:54:12.847Z,47.88
2023-03-10T15:56:39.801Z,51.38
2023-03-10T15:59:08.136Z,53.35
2023-03-10T16:01:35.147Z,59.58
2023-03-10T16:04:05.682Z,60.03
2023-03-10T16:06:33.783Z,61.80
2023-03-10T16:09:01.542Z,55.00
2023-03-10T16:11:28.581Z,55.33
2023-03-10T16:13:55.285Z,57.17
2023-03-10T16:16:23.745Z,52.03
2023-03-10T16:18:50.888Z,50.20
2023-03-10T16:21:18.105Z,55.40
2023-03-10T16:23:44.982Z,52.00
2023-03-10T16:26:21.280Z,50.55
2023-03-10T16:28:50.636Z,46.55
2023-03-10T16:31:19.828Z,43.58
2023-03-10T16:33:48.198Z,44.47
2023-03-10T16:36:17.331Z,44.60
2023-03-10T16:38:44.028Z,44.78
2023-03-10T16:41:11.668Z,60.50
2023-03-10T16:43:38.927Z,44.92
2023-03-10T16:46:25.260Z,41.58
2023-03-10T16:48:53.865Z,38.28
2023-03-10T16:51:30.788Z,41.60
2023-03-10T16:54:02.866Z,43.63
2023-03-10T16:56:30.908Z,50.03
2023-03-10T16:58:57.730Z,47.28
2023-03-10T17:01:24.978Z,53.42
2023-03-10T17:03:53.071Z,56.83
2023-03-10T17:06:23.748Z,59.55
2023-03-10T17:08:51.632Z,51.40
2023-03-10T17:11:32.871Z,59.47
2023-03-10T17:14:01.954Z,55.85
2023-03-10T17:16:30.107Z,53.30
2023-03-10T17:18:58.942Z,63.53
2023-03-10T17:21:28.276Z,61.40
2023-03-10T17:23:55.132Z,69.82
2023-03-10T17:26:21.938Z,61.58
2023-03-10T17:28:51.068Z,60.20
2023-03-10T17:31:23.381Z,59.97
2023-03-10T17:33:50.338Z,61.65
2023-03-10T17:36:17.047Z,61.15
2023-03-10T17:38:44.229Z,59.30
2023-03-10T17:41:12.889Z,55.70
2023-03-10T17:43:40.213Z,56.03
2023-03-10T17:46:10.800Z,50.47
2023-03-10T17:48:37.523Z,77.88
2023-03-10T17:51:05.325Z,62.03
2023-03-10T17:53:31.956Z,51.95
2023-03-10T17:56:02.171Z,52.20
2023-03-10T17:58:28.732Z,51.10
2023-03-10T18:00:55.238Z,50.05
2023-03-10T18:03:22.151Z,50.50
2023-03-10T18:05:48.848Z,54.22
2023-03-10T18:08:15.487Z,62.10
2023-03-10T18:10:42.305Z,59.63
2023-03-10T18:13:11.248Z,60.20
2023-03-10T18:15:38.301Z,68.28
2023-03-10T18:18:04.927Z,72.50
2023-03-10T18:20:31.783Z,74.70
2023-03-10T18:22:59.189Z,78.80
2023-03-10T18:25:25.757Z,80.95
2023-03-10T18:27:52.321Z,77.45
2023-03-10T18:30:20.321Z,74.78
2023-03-10T18:32:46.914Z,74.63
2023-03-10T18:35:13.544Z,73.07
2023-03-10T18:37:40.079Z,76.20
2023-03-10T18:40:09.136Z,77.68
2023-03-10T18:42:35.778Z,86.53
2023-03-10T18:45:02.762Z,85.95
2023-03-10T18:47:29.279Z,81.53
2023-03-10T18:49:55.881Z,89.00
2023-03-10T18:52:22.597Z,94.30
2023-03-10T18:54:49.208Z,88.47
2023-03-10T18:57:15.857Z,91.15
2023-03-10T18:59:42.420Z,86.28
2023-03-10T19:02:14.636Z,86.78
2023-03-10T19:04:41.301Z,88.43
2023-03-10T19:07:08.256Z,86.45
2023-03-10T19:09:34.816Z,82.28
2023-03-10T19:12:04.335Z,83.30
2023-03-10T19:14:30.930Z,87.78
2023-03-10T19:16:57.419Z,78.68
2023-03-10T19:19:24.173Z,77.97
2023-03-10T19:21:50.696Z,77.57
2023-03-10T19:24:17.263Z,75.00
2023-03-10T19:26:43.790Z,72.95
2023-03-10T19:29:10.456Z,70.32
2023-03-10T19:31:37.197Z,70.97
2023-03-10T19:34:03.975Z,77.22
2023-03-10T19:36:30.629Z,65.18
2023-03-10T19:38:57.196Z,65.63
2023-03-10T19:41:23.845Z,59.50
2023-03-10T19:43:52.695Z,56.10
2023-03-10T19:46:20.091Z,155.50
2023-03-10T19:48:47.107Z,159.10
2023-03-10T19:51:26.772Z,136.90
2023-03-10T19:53:55.329Z,125.70
2023-03-10T19:56:23.243Z,128.32
2023-03-10T19:58:53.342Z,121.30
2023-03-10T20:01:24.319Z,115.20
2023-03-10T20:03:55.997Z,104.30
2023-03-10T20:06:23.043Z,98.60
2023-03-10T20:08:50.062Z,99.57
2023-03-10T20:11:17.994Z,100.68
2023-03-10T20:13:45.919Z,90.25
2023-03-10T20:16:14.617Z,90.85
2023-03-10T20:18:44.464Z,86.15
2023-03-10T20:21:11.090Z,85.47
2023-03-10T20:23:37.734Z,82.78
2023-03-10T20:26:09.159Z,80.53
2023-03-10T20:28:37.164Z,76.35
2023-03-10T20:31:03.792Z,75.85
2023-03-10T20:33:31.530Z,74.97
2023-03-10T20:35:58.209Z,62.85
2023-03-10T20:38:24.754Z,70.00
2023-03-10T20:40:54.375Z,67.30
2023-03-10T20:43:21.293Z,67.65
2023-03-10T20:45:51.765Z,61.75
2023-03-10T20:48:18.408Z,58.15
2023-03-10T20:50:53.153Z,61.30
2023-03-10T20:53:19.688Z,51.75
2023-03-10T20:55:46.222Z,55.38
2023-03-10T20:58:12.874Z,55.72
2023-03-10T21:00:39.475Z,61.05
2023-03-10T21:03:06.015Z,55.92
2023-03-10T21:05:32.606Z,55.70
2023-03-10T21:07:59.188Z,61.83
2023-03-10T21:10:26.542Z,59.75
2023-03-10T21:12:53.438Z,63.10
2023-03-10T21:15:20.345Z,64.18
2023-03-10T21:17:47.739Z,63.53
2023-03-10T21:20:21.328Z,61.72
2023-03-10T21:22:48.762Z,62.03
2023-03-10T21:25:20.151Z,59.22
2023-03-10T21:27:49.454Z,62.95
2023-03-10T21:30:17.164Z,61.60
2023-03-10T21:32:43.818Z,57.58
2023-03-10T21:35:13.827Z,54.72
2023-03-10T21:37:42.290Z,61.08
2023-03-10T21:40:11.952Z,62.22
2023-03-10T21:42:38.488Z,55.08
2023-03-10T21:45:06.025Z,56.83
2023-03-10T21:47:32.665Z,55.63
2023-03-10T21:49:59.183Z,53.25
2023-03-10T21:52:26.300Z,53.17
2023-03-10T21:54:52.932Z,50.20
2023-03-10T21:57:19.519Z,52.38
2023-03-10T21:59:46.099Z,52.58
2023-03-10T22:02:27.965Z,48.67
2023-03-10T22:04:54.730Z,47.20
2023-03-10T22:07:21.320Z,47.22
2023-03-10T22:09:48.057Z,49.30
2023-03-10T22:12:14.805Z,52.58
2023-03-10T22:14:41.793Z,50.40
2023-03-10T22:17:08.856Z,58.20
2023-03-10T22:19:35.418Z,58.60
2023-03-10T22:22:02.626Z,57.60
2023-03-10T22:24:29.216Z,63.22
2023-03-10T22:26:55.736Z,60.25
2023-03-10T22:29:22.588Z,56.95
2023-03-10T22:31:56.112Z,67.15
2023-03-10T22:34:22.815Z,73.20
2023-03-10T22:36:49.326Z,65.80
2023-03-10T22:39:15.839Z,67.18
2023-03-10T22:41:42.642Z,64.50
2023-03-10T22:44:09.199Z,71.55
2023-03-10T22:46:38.804Z,71.13
2023-03-10T22:49:05.380Z,69.00
2023-03-10T22:51:31.883Z,64.95
2023-03-10T22:53:58.438Z,64.05
2023-03-10T22:56:24.945Z,62.38
2023-03-10T22:58:54.093Z,67.43
2023-03-10T23:01:23.348Z,62.35
2023-03-10T23:03:49.902Z,64.70
2023-03-10T23:06:16.895Z,59.50
2023-03-10T23:08:43.916Z,62.22
2023-03-10T23:11:12.721Z,69.63
2023-03-10T23:13:39.789Z,62.25
2023-03-10T23:16:07.184Z,62.38
2023-03-10T23:18:33.758Z,59.25
2023-03-10T23:21:00.411Z,60.33
2023-03-10T23:23:27.198Z,59.10
2023-03-10T23:25:54.027Z,60.85
2023-03-10T23:28:21.672Z,58.45
2023-03-10T23:30:49.375Z,58.28
2023-03-10T23:33:18.551Z,61.70
2023-03-10T23:35:53.539Z,55.83
2023-03-10T23:38:22.362Z,52.53
2023-03-10T23:40:49.468Z,56.88
2023-03-10T23:43:16.170Z,53.95
2023-03-10T23:45:43.202Z,54.08
2023-03-10T23:48:15.949Z,56.38
2023-03-10T23:50:45.126Z,51.27
2023-03-10T23:53:13.203Z,51.15
2023-03-10T23:55:41.860Z,50.78
2023-03-10T23:58:09.431Z,49.38
